sensor_id;sensor_type;location;lat;lon;timestamp;pressure;altitude;pressure_sealevel;temperature;humidity
64841;BME280;51307;52.162;7.560;2022-12-18T00:01:59;102387.63;;;-6.51;82.92
64841;BME280;51307;52.162;7.560;2022-12-18T00:04:26;102389.38;;;-6.60;82.79
64841;BME280;51307;52.162;7.560;2022-12-18T00:06:52;102391.91;;;-6.62;83.01
64841;BME280;51307;52.162;7.560;2022-12-18T00:09:18;102382.63;;;-6.78;82.78
64841;BME280;51307;52.162;7.560;2022-12-18T00:11:44;102382.63;;;-6.74;82.27
64841;BME280;51307;52.162;7.560;2022-12-18T00:14:12;102376.66;;;-6.73;82.10
64841;BME280;51307;52.162;7.560;2022-12-18T00:16:38;102374.97;;;-6.63;82.38
64841;BME280;51307;52.162;7.560;2022-12-18T00:19:04;102384.28;;;-6.71;82.39
64841;BME280;51307;52.162;7.560;2022-12-18T00:21:31;102386.84;;;-6.77;82.33
64841;BME280;51307;52.162;7.560;2022-12-18T00:23:58;102384.34;;;-7.02;82.35
64841;BME280;51307;52.162;7.560;2022-12-18T00:26:32;102388.56;;;-6.90;82.17
64841;BME280;51307;52.162;7.560;2022-12-18T00:29:01;102384.31;;;-6.82;82.00
64841;BME280;51307;52.162;7.560;2022-12-18T00:31:28;102387.72;;;-6.92;82.31
64841;BME280;51307;52.162;7.560;2022-12-18T00:33:55;102381.78;;;-6.91;82.17
64841;BME280;51307;52.162;7.560;2022-12-18T00:36:24;102381.78;;;-6.86;82.10
64841;BME280;51307;52.162;7.560;2022-12-18T00:38:50;102386.03;;;-6.96;82.09
64841;BME280;51307;52.162;7.560;2022-12-18T00:41:17;102383.47;;;-6.84;81.77
64841;BME280;51307;52.162;7.560;2022-12-18T00:44:03;102371.63;;;-6.91;81.65
64841;BME280;51307;52.162;7.560;2022-12-18T00:46:29;102368.25;;;-6.81;81.63
64841;BME280;51307;52.162;7.560;2022-12-18T00:48:55;102367.38;;;-6.91;81.38
64841;BME280;51307;52.162;7.560;2022-12-18T00:51:20;102370.78;;;-6.92;81.49
64841;BME280;51307;52.162;7.560;2022-12-18T00:53:46;102371.63;;;-7.03;81.66
64841;BME280;51307;52.162;7.560;2022-12-18T00:56:11;102381.81;;;-7.06;81.66
64841;BME280;51307;52.162;7.560;2022-12-18T00:58:37;102384.38;;;-7.14;81.49
64841;BME280;51307;52.162;7.560;2022-12-18T01:01:04;102382.63;;;-7.01;81.38
64841;BME280;51307;52.162;7.560;2022-12-18T01:03:30;102381.81;;;-6.99;81.01
64841;BME280;51307;52.162;7.560;2022-12-18T01:05:56;102386.03;;;-7.12;81.46
64841;BME280;51307;52.162;7.560;2022-12-18T01:08:22;102379.28;;;-7.05;81.36
64841;BME280;51307;52.162;7.560;2022-12-18T01:10:47;102374.19;;;-7.13;81.38
64841;BME280;51307;52.162;7.560;2022-12-18T01:13:13;102374.19;;;-7.17;81.21
64841;BME280;51307;52.162;7.560;2022-12-18T01:15:39;102372.47;;;-7.17;81.09
64841;BME280;51307;52.162;7.560;2022-12-18T01:18:06;102364.91;;;-7.18;80.91
64841;BME280;51307;52.162;7.560;2022-12-18T01:20:32;102366.56;;;-7.33;80.87
64841;BME280;51307;52.162;7.560;2022-12-18T01:22:58;102368.28;;;-7.28;80.65
64841;BME280;51307;52.162;7.560;2022-12-18T01:25:23;102378.41;;;-7.39;80.62
64841;BME280;51307;52.162;7.560;2022-12-18T01:27:49;102376.72;;;-7.37;80.58
64841;BME280;51307;52.162;7.560;2022-12-18T01:30:14;102374.19;;;-7.37;80.23
64841;BME280;51307;52.162;7.560;2022-12-18T01:32:40;102380.13;;;-7.46;80.60
64841;BME280;51307;52.162;7.560;2022-12-18T01:35:06;102376.72;;;-7.39;80.56
64841;BME280;51307;52.162;7.560;2022-12-18T01:37:32;102380.13;;;-7.35;80.55
64841;BME280;51307;52.162;7.560;2022-12-18T01:39:57;102367.44;;;-7.44;80.50
64841;BME280;51307;52.162;7.560;2022-12-18T01:42:23;102378.41;;;-7.44;80.15
64841;BME280;51307;52.162;7.560;2022-12-18T01:50:14;102375.88;;;-7.35;79.75
64841;BME280;51307;52.162;7.560;2022-12-18T01:52:47;102376.72;;;-7.36;79.76
64841;BME280;51307;52.162;7.560;2022-12-18T01:55:17;102380.13;;;-7.34;79.46
64841;BME280;51307;52.162;7.560;2022-12-18T01:57:43;102392.81;;;-7.55;79.78
64841;BME280;51307;52.162;7.560;2022-12-18T02:00:16;102396.22;;;-7.48;79.85
64841;BME280;51307;52.162;7.560;2022-12-18T02:02:44;102386.03;;;-7.50;80.00
64841;BME280;51307;52.162;7.560;2022-12-18T02:05:13;102390.28;;;-7.52;79.76
64841;BME280;51307;52.162;7.560;2022-12-18T02:08:05;102383.50;;;-7.36;79.75
64841;BME280;51307;52.162;7.560;2022-12-18T02:11:05;102379.28;;;-7.57;79.89
64841;BME280;51307;52.162;7.560;2022-12-18T02:19:17;102381.81;;;-7.65;79.87
64841;BME280;51307;52.162;7.560;2022-12-18T02:21:57;102386.03;;;-7.68;79.87
64841;BME280;51307;52.162;7.560;2022-12-18T02:24:34;102386.03;;;-7.71;79.95
64841;BME280;51307;52.162;7.560;2022-12-18T02:27:05;102378.41;;;-7.71;79.96
64841;BME280;51307;52.162;7.560;2022-12-18T02:29:43;102376.72;;;-7.76;80.19
64841;BME280;51307;52.162;7.560;2022-12-18T02:32:18;102360.63;;;-7.79;80.21
64841;BME280;51307;52.162;7.560;2022-12-18T02:34:46;102356.41;;;-7.74;80.05
64841;BME280;51307;52.162;7.560;2022-12-18T02:37:16;102359.81;;;-7.75;79.86
64841;BME280;51307;52.162;7.560;2022-12-18T02:39:46;102369.09;;;-7.79;79.93
64841;BME280;51307;52.162;7.560;2022-12-18T02:42:13;102364.88;;;-7.77;79.58
64841;BME280;51307;52.162;7.560;2022-12-18T02:44:47;102366.56;;;-7.82;79.53
64841;BME280;51307;52.162;7.560;2022-12-18T02:47:15;102363.97;;;-7.89;79.47
64841;BME280;51307;52.162;7.560;2022-12-18T03:03:42;102364.84;;;-7.90;79.13
64841;BME280;51307;52.162;7.560;2022-12-18T03:06:26;102358.03;;;-8.08;79.59
64841;BME280;51307;52.162;7.560;2022-12-18T03:08:59;102346.22;;;-8.00;79.23
64841;BME280;51307;52.162;7.560;2022-12-18T03:11:33;102347.91;;;-8.02;79.34
64841;BME280;51307;52.162;7.560;2022-12-18T03:14:21;102352.97;;;-7.99;79.27
64841;BME280;51307;52.162;7.560;2022-12-18T03:16:52;102345.38;;;-8.02;79.21
64841;BME280;51307;52.162;7.560;2022-12-18T03:19:22;102358.88;;;-8.08;79.23
64841;BME280;51307;52.162;7.560;2022-12-18T03:21:54;102358.88;;;-8.03;78.85
64841;BME280;51307;52.162;7.560;2022-12-18T03:24:24;102367.28;;;-8.21;78.79
64841;BME280;51307;52.162;7.560;2022-12-18T03:26:56;102368.97;;;-8.19;79.04
64841;BME280;51307;52.162;7.560;2022-12-18T03:29:33;102369.81;;;-8.17;78.71
64841;BME280;51307;52.162;7.560;2022-12-18T03:32:23;102374.03;;;-8.19;79.27
64841;BME280;51307;52.162;7.560;2022-12-18T03:34:53;102368.19;;;-8.07;78.79
64841;BME280;51307;52.162;7.560;2022-12-18T03:37:21;102366.41;;;-8.28;79.13
64841;BME280;51307;52.162;7.560;2022-12-18T03:39:47;102368.94;;;-8.23;79.05
64841;BME280;51307;52.162;7.560;2022-12-18T03:42:31;102368.13;;;-8.19;79.29
64841;BME280;51307;52.162;7.560;2022-12-18T03:47:45;102352.03;;;-8.27;78.92
64841;BME280;51307;52.162;7.560;2022-12-18T03:50:29;102358.81;;;-8.26;78.83
64841;BME280;51307;52.162;7.560;2022-12-18T03:53:28;102352.81;;;-8.45;79.14
64841;BME280;51307;52.162;7.560;2022-12-18T03:55:52;102353.72;;;-8.31;78.78
64841;BME280;51307;52.162;7.560;2022-12-18T03:58:25;102354.53;;;-8.37;78.58
64841;BME280;51307;52.162;7.560;2022-12-18T04:00:56;102346.09;;;-8.34;78.23
64841;BME280;51307;52.162;7.560;2022-12-18T04:03:24;102346.13;;;-8.28;78.05
64841;BME280;51307;52.162;7.560;2022-12-18T04:05:54;102346.97;;;-8.27;78.07
64841;BME280;51307;52.162;7.560;2022-12-18T04:08:21;102341.09;;;-8.22;77.98
64841;BME280;51307;52.162;7.560;2022-12-18T04:10:47;102333.44;;;-8.32;78.44
64841;BME280;51307;52.162;7.560;2022-12-18T04:13:22;102347.00;;;-8.24;78.68
64841;BME280;51307;52.162;7.560;2022-12-18T04:15:48;102346.19;;;-8.12;78.71
64841;BME280;51307;52.162;7.560;2022-12-18T04:18:13;102347.00;;;-8.20;79.09
64841;BME280;51307;52.162;7.560;2022-12-18T04:20:38;102344.50;;;-8.13;78.97
64841;BME280;51307;52.162;7.560;2022-12-18T04:23:04;102350.38;;;-8.21;79.27
64841;BME280;51307;52.162;7.560;2022-12-18T04:25:29;102358.84;;;-8.16;79.25
64841;BME280;51307;52.162;7.560;2022-12-18T04:27:55;102356.28;;;-8.22;79.41
64841;BME280;51307;52.162;7.560;2022-12-18T04:30:20;102347.00;;;-8.24;79.41
64841;BME280;51307;52.162;7.560;2022-12-18T04:32:46;102336.88;;;-8.20;79.51
64841;BME280;51307;52.162;7.560;2022-12-18T04:35:11;102339.38;;;-8.23;79.36
64841;BME280;51307;52.162;7.560;2022-12-18T04:37:37;102336.00;;;-8.20;79.25
64841;BME280;51307;52.162;7.560;2022-12-18T04:40:03;102334.34;;;-8.17;79.33
64841;BME280;51307;52.162;7.560;2022-12-18T04:42:28;102336.81;;;-8.35;79.52
64841;BME280;51307;52.162;7.560;2022-12-18T04:44:54;102330.91;;;-8.28;79.43
64841;BME280;51307;52.162;7.560;2022-12-18T04:47:19;102336.81;;;-8.32;79.54
64841;BME280;51307;52.162;7.560;2022-12-18T04:49:45;102338.53;;;-8.31;79.65
64841;BME280;51307;52.162;7.560;2022-12-18T04:52:10;102333.47;;;-8.26;79.63
64841;BME280;51307;52.162;7.560;2022-12-18T04:54:36;102319.97;;;-8.19;79.41
64841;BME280;51307;52.162;7.560;2022-12-18T04:57:01;102331.78;;;-8.23;79.48
64841;BME280;51307;52.162;7.560;2022-12-18T04:59:27;102325.91;;;-8.16;79.43
64841;BME280;51307;52.162;7.560;2022-12-18T05:01:52;102340.22;;;-8.27;79.79
64841;BME280;51307;52.162;7.560;2022-12-18T05:04:18;102341.09;;;-8.17;79.71
64841;BME280;51307;52.162;7.560;2022-12-18T05:06:43;102349.53;;;-8.24;79.92
64841;BME280;51307;52.162;7.560;2022-12-18T05:09:09;102352.91;;;-8.22;79.77
64841;BME280;51307;52.162;7.560;2022-12-18T05:11:34;102346.13;;;-8.25;79.70
64841;BME280;51307;52.162;7.560;2022-12-18T05:14:00;102346.13;;;-8.28;79.85
64841;BME280;51307;52.162;7.560;2022-12-18T05:16:25;102336.84;;;-8.21;79.73
64841;BME280;51307;52.162;7.560;2022-12-18T05:18:51;102327.56;;;-8.16;79.64
64841;BME280;51307;52.162;7.560;2022-12-18T05:21:16;102332.59;;;-8.27;79.88
64841;BME280;51307;52.162;7.560;2022-12-18T05:23:42;102314.06;;;-8.24;80.03
64841;BME280;51307;52.162;7.560;2022-12-18T05:26:07;102312.38;;;-8.18;80.26
64841;BME280;51307;52.162;7.560;2022-12-18T05:28:35;102309.84;;;-8.15;80.07
64841;BME280;51307;52.162;7.560;2022-12-18T05:31:03;102320.00;;;-8.10;80.50
64841;BME280;51307;52.162;7.560;2022-12-18T05:33:31;102325.91;;;-8.05;80.82
64841;BME280;51307;52.162;7.560;2022-12-18T05:35:59;102330.13;;;-8.05;81.21
64841;BME280;51307;52.162;7.560;2022-12-18T05:38:27;102330.16;;;-7.96;81.55
64841;BME280;51307;52.162;7.560;2022-12-18T05:40:53;102336.94;;;-7.90;81.75
64841;BME280;51307;52.162;7.560;2022-12-18T05:43:20;102344.53;;;-7.92;81.93
64841;BME280;51307;52.162;7.560;2022-12-18T05:45:49;102344.56;;;-7.86;82.41
64841;BME280;51307;52.162;7.560;2022-12-18T05:48:16;102351.31;;;-7.83;82.57
64841;BME280;51307;52.162;7.560;2022-12-18T05:50:44;102340.34;;;-7.79;82.84
64841;BME280;51307;52.162;7.560;2022-12-18T05:53:14;102346.25;;;-7.74;83.03
64841;BME280;51307;52.162;7.560;2022-12-18T05:55:41;102349.66;;;-7.69;83.05
64841;BME280;51307;52.162;7.560;2022-12-18T05:58:09;102356.44;;;-7.65;83.15
64841;BME280;51307;52.162;7.560;2022-12-18T06:00:38;102349.66;;;-7.66;83.11
64841;BME280;51307;52.162;7.560;2022-12-18T06:03:08;102345.44;;;-7.70;83.32
64841;BME280;51307;52.162;7.560;2022-12-18T06:05:38;102359.84;;;-7.63;83.19
64841;BME280;51307;52.162;7.560;2022-12-18T06:08:04;102350.50;;;-7.59;83.26
64841;BME280;51307;52.162;7.560;2022-12-18T06:10:31;102348.84;;;-7.60;83.23
64841;BME280;51307;52.162;7.560;2022-12-18T06:12:56;102353.03;;;-7.61;83.48
64841;BME280;51307;52.162;7.560;2022-12-18T06:15:22;102358.97;;;-7.65;83.70
64841;BME280;51307;52.162;7.560;2022-12-18T06:17:47;102365.75;;;-7.59;83.46
64841;BME280;51307;52.162;7.560;2022-12-18T06:20:13;102359.81;;;-7.61;83.49
64841;BME280;51307;52.162;7.560;2022-12-18T06:22:38;102362.34;;;-7.66;83.71
64841;BME280;51307;52.162;7.560;2022-12-18T06:25:04;102360.69;;;-7.58;83.66
64841;BME280;51307;52.162;7.560;2022-12-18T06:27:31;102364.03;;;-7.62;83.60
64841;BME280;51307;52.162;7.560;2022-12-18T06:29:59;102368.28;;;-7.67;83.76
64841;BME280;51307;52.162;7.560;2022-12-18T06:32:24;102376.75;;;-7.69;83.78
64841;BME280;51307;52.162;7.560;2022-12-18T06:34:50;102378.44;;;-7.62;83.74
64841;BME280;51307;52.162;7.560;2022-12-18T06:37:15;102374.19;;;-7.62;84.21
64841;BME280;51307;52.162;7.560;2022-12-18T06:39:41;102370.81;;;-7.62;84.09
64841;BME280;51307;52.162;7.560;2022-12-18T06:42:07;102382.66;;;-7.57;83.51
64841;BME280;51307;52.162;7.560;2022-12-18T06:44:32;102379.28;;;-7.57;83.61
64841;BME280;51307;52.162;7.560;2022-12-18T06:46:58;102387.72;;;-7.57;83.98
64841;BME280;51307;52.162;7.560;2022-12-18T06:49:23;102389.44;;;-7.51;83.95
64841;BME280;51307;52.162;7.560;2022-12-18T06:51:49;102397.88;;;-7.52;83.54
64841;BME280;51307;52.162;7.560;2022-12-18T06:54:14;102394.50;;;-7.62;83.37
64841;BME280;51307;52.162;7.560;2022-12-18T06:56:40;102389.41;;;-7.54;82.80
64841;BME280;51307;52.162;7.560;2022-12-18T06:59:05;102391.09;;;-7.64;82.71
64841;BME280;51307;52.162;7.560;2022-12-18T07:01:31;102392.78;;;-7.69;83.09
64841;BME280;51307;52.162;7.560;2022-12-18T07:03:57;102391.09;;;-7.65;83.41
64841;BME280;51307;52.162;7.560;2022-12-18T07:06:25;102393.63;;;-7.75;83.82
64841;BME280;51307;52.162;7.560;2022-12-18T07:08:52;102391.09;;;-7.64;84.04
64841;BME280;51307;52.162;7.560;2022-12-18T07:11:19;102374.19;;;-7.62;84.21
64841;BME280;51307;52.162;7.560;2022-12-18T07:13:45;102371.66;;;-7.59;84.08
64841;BME280;51307;52.162;7.560;2022-12-18T07:16:15;102375.06;;;-7.58;84.26
64841;BME280;51307;52.162;7.560;2022-12-18T07:18:40;102365.75;;;-7.45;84.78
64841;BME280;51307;52.162;7.560;2022-12-18T07:21:08;102362.38;;;-7.44;84.57
64841;BME280;51307;52.162;7.560;2022-12-18T07:23:35;102360.66;;;-7.42;84.66
64841;BME280;51307;52.162;7.560;2022-12-18T07:26:05;102355.56;;;-7.35;84.82
64841;BME280;51307;52.162;7.560;2022-12-18T07:28:32;102347.94;;;-7.35;84.91
64841;BME280;51307;52.162;7.560;2022-12-18T07:31:05;102347.94;;;-7.35;84.98
64841;BME280;51307;52.162;7.560;2022-12-18T07:33:32;102350.50;;;-7.18;85.04
64841;BME280;51307;52.162;7.560;2022-12-18T07:36:03;102343.75;;;-7.25;85.35
64841;BME280;51307;52.162;7.560;2022-12-18T07:38:30;102352.19;;;-7.23;85.69
64841;BME280;51307;52.162;7.560;2022-12-18T07:41:08;102357.25;;;-7.20;85.88
64841;BME280;51307;52.162;7.560;2022-12-18T07:43:34;102350.50;;;-7.13;85.66
64841;BME280;51307;52.162;7.560;2022-12-18T07:46:00;102349.66;;;-7.21;86.18
64841;BME280;51307;52.162;7.560;2022-12-18T07:48:26;102339.47;;;-7.04;86.11
64841;BME280;51307;52.162;7.560;2022-12-18T07:50:52;102339.47;;;-7.00;86.00
64841;BME280;51307;52.162;7.560;2022-12-18T07:53:18;102329.25;;;-6.81;85.96
64841;BME280;51307;52.162;7.560;2022-12-18T07:55:43;102329.28;;;-6.83;86.01
64841;BME280;51307;52.162;7.560;2022-12-18T07:58:09;102328.41;;;-6.70;86.40
64841;BME280;51307;52.162;7.560;2022-12-18T08:00:35;102336.91;;;-6.89;86.55
64841;BME280;51307;52.162;7.560;2022-12-18T08:03:01;102336.91;;;-6.77;87.00
64841;BME280;51307;52.162;7.560;2022-12-18T08:05:26;102336.88;;;-6.71;87.12
64841;BME280;51307;52.162;7.560;2022-12-18T08:07:52;102329.22;;;-6.64;87.31
64841;BME280;51307;52.162;7.560;2022-12-18T08:10:18;102338.56;;;-6.70;87.27
64841;BME280;51307;52.162;7.560;2022-12-18T08:12:44;102343.63;;;-6.66;87.54
64841;BME280;51307;52.162;7.560;2022-12-18T08:15:10;102351.22;;;-6.51;87.45
64841;BME280;51307;52.162;7.560;2022-12-18T08:17:35;102351.16;;;-6.42;87.67
64841;BME280;51307;52.162;7.560;2022-12-18T08:20:01;102354.56;;;-6.44;87.87
64841;BME280;51307;52.162;7.560;2022-12-18T08:22:26;102349.44;;;-6.34;87.79
64841;BME280;51307;52.162;7.560;2022-12-18T08:24:52;102346.06;;;-6.34;87.91
64841;BME280;51307;52.162;7.560;2022-12-18T08:27:17;102356.13;;;-6.10;88.03
64841;BME280;51307;52.162;7.560;2022-12-18T08:29:43;102351.06;;;-6.16;88.16
64841;BME280;51307;52.162;7.560;2022-12-18T08:32:08;102338.38;;;-6.22;88.38
64841;BME280;51307;52.162;7.560;2022-12-18T08:34:34;102342.63;;;-6.19;88.72
64841;BME280;51307;52.162;7.560;2022-12-18T08:36:59;102333.25;;;-6.16;88.75
64841;BME280;51307;52.162;7.560;2022-12-18T08:39:25;102323.91;;;-6.06;88.92
64841;BME280;51307;52.162;7.560;2022-12-18T08:41:50;102330.63;;;-5.99;88.87
64841;BME280;51307;52.162;7.560;2022-12-18T08:44:34;102331.50;;;-6.03;89.22
64841;BME280;51307;52.162;7.560;2022-12-18T08:47:06;102335.69;;;-5.96;89.65
64841;BME280;51307;52.162;7.560;2022-12-18T08:49:33;102335.59;;;-5.80;89.58
64841;BME280;51307;52.162;7.560;2022-12-18T08:51:59;102326.22;;;-5.71;89.65
64841;BME280;51307;52.162;7.560;2022-12-18T08:54:25;102317.69;;;-5.65;89.70
64841;BME280;51307;52.162;7.560;2022-12-18T08:56:51;102314.25;;;-5.59;90.02
64841;BME280;51307;52.162;7.560;2022-12-18T08:59:17;102302.34;;;-5.56;90.00
64841;BME280;51307;52.162;7.560;2022-12-18T09:01:43;102308.31;;;-5.57;90.42
64841;BME280;51307;52.162;7.560;2022-12-18T09:04:11;102298.91;;;-5.52;90.57
64841;BME280;51307;52.162;7.560;2022-12-18T09:06:37;102290.41;;;-5.48;90.53
64841;BME280;51307;52.162;7.560;2022-12-18T09:09:04;102297.94;;;-5.38;90.89
64841;BME280;51307;52.162;7.560;2022-12-18T09:11:30;102297.91;;;-5.34;90.86
64841;BME280;51307;52.162;7.560;2022-12-18T09:13:57;102309.72;;;-5.22;90.79
64841;BME280;51307;52.162;7.560;2022-12-18T09:16:26;102311.44;;;-5.27;91.12
64841;BME280;51307;52.162;7.560;2022-12-18T09:18:54;102306.31;;;-5.22;91.18
64841;BME280;51307;52.162;7.560;2022-12-18T09:21:26;102312.22;;;-5.19;91.62
64841;BME280;51307;52.162;7.560;2022-12-18T09:23:53;102315.59;;;-5.15;91.83
64841;BME280;51307;52.162;7.560;2022-12-18T09:26:20;102327.41;;;-5.10;92.14
64841;BME280;51307;52.162;7.560;2022-12-18T09:28:45;102323.88;;;-4.96;92.21
64841;BME280;51307;52.162;7.560;2022-12-18T09:31:12;102333.16;;;-4.89;92.25
64841;BME280;51307;52.162;7.560;2022-12-18T09:33:38;102337.44;;;-4.91;92.56
64841;BME280;51307;52.162;7.560;2022-12-18T09:36:06;102338.22;;;-4.85;92.94
64841;BME280;51307;52.162;7.560;2022-12-18T09:38:33;102338.06;;;-4.69;92.71
64841;BME280;51307;52.162;7.560;2022-12-18T09:43:40;102335.44;;;-4.65;93.52
64841;BME280;51307;52.162;7.560;2022-12-18T09:46:10;102330.31;;;-4.62;93.37
64841;BME280;51307;52.162;7.560;2022-12-18T09:48:45;102321.75;;;-4.56;93.62
64841;BME280;51307;52.162;7.560;2022-12-18T09:51:33;102308.97;;;-4.53;93.67
64841;BME280;51307;52.162;7.560;2022-12-18T09:54:06;102302.94;;;-4.47;94.06
64841;BME280;51307;52.162;7.560;2022-12-18T09:56:40;102295.25;;;-4.43;94.59
64841;BME280;51307;52.162;7.560;2022-12-18T09:59:18;102294.22;;;-4.29;94.71
64841;BME280;51307;52.162;7.560;2022-12-18T10:01:45;102280.59;;;-4.28;94.92
64841;BME280;51307;52.162;7.560;2022-12-18T10:04:11;102279.63;;;-4.20;95.13
64841;BME280;51307;52.162;7.560;2022-12-18T10:07:00;102270.25;;;-4.19;95.40
64841;BME280;51307;52.162;7.560;2022-12-18T10:09:37;102277.72;;;-4.05;95.66
64841;BME280;51307;52.162;7.560;2022-12-18T10:12:08;102275.13;;;-4.04;95.94
64841;BME280;51307;52.162;7.560;2022-12-18T10:14:53;102268.28;;;-4.00;95.82
64841;BME280;51307;52.162;7.560;2022-12-18T10:17:42;102256.25;;;-3.92;95.78
64841;BME280;51307;52.162;7.560;2022-12-18T10:20:32;102261.19;;;-3.81;95.75
64841;BME280;51307;52.162;7.560;2022-12-18T10:28:22;102269.63;;;-3.78;96.00
64841;BME280;51307;52.162;7.560;2022-12-18T10:30:48;102270.44;;;-3.72;96.12
64841;BME280;51307;52.162;7.560;2022-12-18T10:33:21;102265.25;;;-3.69;96.35
64841;BME280;51307;52.162;7.560;2022-12-18T10:35:49;102255.84;;;-3.66;96.17
64841;BME280;51307;52.162;7.560;2022-12-18T10:43:27;102222.50;;;-3.56;95.98
64841;BME280;51307;52.162;7.560;2022-12-18T10:48:36;102215.84;;;-3.65;96.71
64841;BME280;51307;52.162;7.560;2022-12-18T10:51:06;102203.00;;;-3.62;97.22
64841;BME280;51307;52.162;7.560;2022-12-18T10:53:35;102199.41;;;-3.50;97.08
64841;BME280;51307;52.162;7.560;2022-12-18T10:56:04;102209.63;;;-3.52;97.60
64841;BME280;51307;52.162;7.560;2022-12-18T10:58:31;102205.34;;;-3.50;97.58
64841;BME280;51307;52.162;7.560;2022-12-18T11:03:45;102201.69;;;-3.37;98.17
64841;BME280;51307;52.162;7.560;2022-12-18T11:06:13;102193.25;;;-3.40;97.98
64841;BME280;51307;52.162;7.560;2022-12-18T11:08:42;102191.50;;;-3.38;98.40
64841;BME280;51307;52.162;7.560;2022-12-18T11:11:22;102188.03;;;-3.34;98.43
64841;BME280;51307;52.162;7.560;2022-12-18T11:14:18;102198.03;;;-3.23;98.39
64841;BME280;51307;52.162;7.560;2022-12-18T11:16:49;102191.19;;;-3.21;98.41
64841;BME280;51307;52.162;7.560;2022-12-18T11:21:53;102179.13;;;-3.14;98.62
64841;BME280;51307;52.162;7.560;2022-12-18T11:24:34;102176.50;;;-3.11;98.49
64841;BME280;51307;52.162;7.560;2022-12-18T11:27:03;102172.25;;;-3.11;98.56
64841;BME280;51307;52.162;7.560;2022-12-18T11:29:36;102163.72;;;-3.10;98.72
64841;BME280;51307;52.162;7.560;2022-12-18T11:34:44;102148.34;;;-3.08;99.21
64841;BME280;51307;52.162;7.560;2022-12-18T11:37:13;102144.91;;;-3.07;99.17
64841;BME280;51307;52.162;7.560;2022-12-18T11:39:46;102144.66;;;-2.95;98.98
64841;BME280;51307;52.162;7.560;2022-12-18T11:42:35;102152.47;;;-3.01;99.31
64841;BME280;51307;52.162;7.560;2022-12-18T11:53:04;102148.03;;;-2.93;99.17
64841;BME280;51307;52.162;7.560;2022-12-18T11:55:53;102149.66;;;-2.89;99.70
64841;BME280;51307;52.162;7.560;2022-12-18T11:58:39;102141.91;;;-2.86;99.36
64841;BME280;51307;52.162;7.560;2022-12-18T12:01:23;102134.13;;;-2.81;99.16
64841;BME280;51307;52.162;7.560;2022-12-18T12:06:53;102122.16;;;-2.79;99.06
64841;BME280;51307;52.162;7.560;2022-12-18T12:12:44;102114.50;;;-2.79;99.16
64841;BME280;51307;52.162;7.560;2022-12-18T12:26:10;102109.13;;;-2.68;99.24
64841;BME280;51307;52.162;7.560;2022-12-18T12:39:15;102075.00;;;-2.67;99.64
64841;BME280;51307;52.162;7.560;2022-12-18T12:41:46;102057.09;;;-2.67;99.73
64841;BME280;51307;52.162;7.560;2022-12-18T12:44:37;102048.56;;;-2.66;99.74
64841;BME280;51307;52.162;7.560;2022-12-18T12:47:23;102055.44;;;-2.68;99.82
64841;BME280;51307;52.162;7.560;2022-12-18T12:49:51;102057.69;;;-2.56;99.90
64841;BME280;51307;52.162;7.560;2022-12-18T12:52:29;102050.09;;;-2.59;99.97
64841;BME280;51307;52.162;7.560;2022-12-18T12:54:57;102046.50;;;-2.52;99.83
64841;BME280;51307;52.162;7.560;2022-12-18T12:57:33;102053.38;;;-2.54;99.88
64841;BME280;51307;52.162;7.560;2022-12-18T13:00:10;102056.72;;;-2.52;99.48
64841;BME280;51307;52.162;7.560;2022-12-18T13:05:32;102039.59;;;-2.48;99.52
64841;BME280;51307;52.162;7.560;2022-12-18T13:08:03;102031.25;;;-2.55;99.44
64841;BME280;51307;52.162;7.560;2022-12-18T13:10:32;102028.44;;;-2.46;98.99
64841;BME280;51307;52.162;7.560;2022-12-18T13:15:33;102012.94;;;-2.40;98.45
64841;BME280;51307;52.162;7.560;2022-12-18T13:20:36;102009.63;;;-2.43;98.11
64841;BME280;51307;52.162;7.560;2022-12-18T13:31:10;102013.75;;;-2.38;96.93
64841;BME280;51307;52.162;7.560;2022-12-18T13:33:43;102008.53;;;-2.35;96.87
64841;BME280;51307;52.162;7.560;2022-12-18T13:36:35;101995.59;;;-2.28;96.58
64841;BME280;51307;52.162;7.560;2022-12-18T13:41:42;101995.59;;;-2.28;96.49
64841;BME280;51307;52.162;7.560;2022-12-18T13:44:13;101988.56;;;-2.20;96.21
64841;BME280;51307;52.162;7.560;2022-12-18T13:46:49;101975.00;;;-2.24;96.03
64841;BME280;51307;52.162;7.560;2022-12-18T13:49:40;101981.22;;;-2.34;95.83
64841;BME280;51307;52.162;7.560;2022-12-18T13:52:17;101975.81;;;-2.22;95.72
64841;BME280;51307;52.162;7.560;2022-12-18T13:54:47;101979.81;;;-2.11;95.20
64841;BME280;51307;52.162;7.560;2022-12-18T13:57:31;101959.50;;;-2.18;95.08
64841;BME280;51307;52.162;7.560;2022-12-18T13:59:58;101977.38;;;-2.16;94.98
64841;BME280;51307;52.162;7.560;2022-12-18T14:02:26;101962.00;;;-2.16;94.51
64841;BME280;51307;52.162;7.560;2022-12-18T14:04:53;101958.66;;;-2.18;94.27
64841;BME280;51307;52.162;7.560;2022-12-18T14:07:23;101961.16;;;-2.17;94.22
64841;BME280;51307;52.162;7.560;2022-12-18T14:09:55;101959.38;;;-2.15;93.73
64841;BME280;51307;52.162;7.560;2022-12-18T14:12:33;101958.41;;;-2.09;93.67
64841;BME280;51307;52.162;7.560;2022-12-18T14:17:58;101948.22;;;-2.12;93.14
64841;BME280;51307;52.162;7.560;2022-12-18T14:20:27;101942.38;;;-2.16;93.16
64841;BME280;51307;52.162;7.560;2022-12-18T14:22:54;101941.28;;;-2.07;92.71
64841;BME280;51307;52.162;7.560;2022-12-18T14:25:26;101930.09;;;-2.04;92.53
64841;BME280;51307;52.162;7.560;2022-12-18T14:30:37;101920.50;;;-1.96;92.00
64841;BME280;51307;52.162;7.560;2022-12-18T14:33:12;101912.75;;;-1.95;91.70
64841;BME280;51307;52.162;7.560;2022-12-18T14:35:51;101915.47;;;-2.01;91.87
64841;BME280;51307;52.162;7.560;2022-12-18T14:41:02;101906.03;;;-1.99;91.18
64841;BME280;51307;52.162;7.560;2022-12-18T14:43:32;101905.16;;;-1.98;91.16
64841;BME280;51307;52.162;7.560;2022-12-18T14:46:00;101894.03;;;-1.97;90.75
64841;BME280;51307;52.162;7.560;2022-12-18T14:48:40;101893.91;;;-1.92;90.45
64841;BME280;51307;52.162;7.560;2022-12-18T14:53:44;101892.13;;;-1.90;90.02
64841;BME280;51307;52.162;7.560;2022-12-18T14:56:17;101894.84;;;-1.95;90.04
64841;BME280;51307;52.162;7.560;2022-12-18T14:58:56;101900.81;;;-1.94;90.10
64841;BME280;51307;52.162;7.560;2022-12-18T15:03:52;101891.25;;;-1.89;89.39